sensor_id;sensor_type;location;lat;lon;timestamp;pressure;altitude;pressure_sealevel;temperature;humidity
49709;BME280;35601;55.902;13.606;2023-05-11T00:00:35;100794.42;;;8.76;48.74
49709;BME280;35601;55.902;13.606;2023-05-11T00:02:59;100789.20;;;8.71;48.57
49709;BME280;35601;55.902;13.606;2023-05-11T00:05:24;100791.86;;;9.02;48.79
49709;BME280;35601;55.902;13.606;2023-05-11T00:07:50;100790.72;;;8.66;48.46
49709;BME280;35601;55.902;13.606;2023-05-11T00:10:15;100794.72;;;8.94;48.19
49709;BME280;35601;55.902;13.606;2023-05-11T00:12:41;100790.40;;;8.71;48.30
49709;BME280;35601;55.902;13.606;2023-05-11T00:15:07;100789.47;;;8.76;47.87
49709;BME280;35601;55.902;13.606;2023-05-11T00:17:31;100790.22;;;9.02;48.00
49709;BME280;35601;55.902;13.606;2023-05-11T00:19:57;100792.37;;;8.82;47.47
49709;BME280;35601;55.902;13.606;2023-05-11T00:22:23;100794.89;;;7.88;47.44
49709;BME280;35601;55.902;13.606;2023-05-11T00:24:48;100791.96;;;8.91;46.85
49709;BME280;35601;55.902;13.606;2023-05-11T00:27:16;100789.03;;;9.13;46.37
49709;BME280;35601;55.902;13.606;2023-05-11T00:29:39;100790.32;;;9.09;46.59
49709;BME280;35601;55.902;13.606;2023-05-11T00:32:04;100790.53;;;9.14;46.55
49709;BME280;35601;55.902;13.606;2023-05-11T00:34:31;100792.33;;;9.21;46.34
49709;BME280;35601;55.902;13.606;2023-05-11T00:36:56;100794.40;;;8.95;46.42
49709;BME280;35601;55.902;13.606;2023-05-11T00:39:21;100791.94;;;9.02;46.84
49709;BME280;35601;55.902;13.606;2023-05-11T00:41:46;100789.28;;;8.97;46.35
49709;BME280;35601;55.902;13.606;2023-05-11T00:44:12;100787.84;;;8.85;46.38
49709;BME280;35601;55.902;13.606;2023-05-11T00:46:39;100788.87;;;8.87;46.51
49709;BME280;35601;55.902;13.606;2023-05-11T00:49:04;100786.91;;;9.27;46.16
49709;BME280;35601;55.902;13.606;2023-05-11T00:51:30;100784.61;;;9.31;46.35
49709;BME280;35601;55.902;13.606;2023-05-11T00:53:57;100787.44;;;9.14;46.19
49709;BME280;35601;55.902;13.606;2023-05-11T00:56:21;100786.34;;;9.55;46.00
49709;BME280;35601;55.902;13.606;2023-05-11T00:58:45;100787.01;;;9.33;46.23
49709;BME280;35601;55.902;13.606;2023-05-11T01:01:11;100784.34;;;9.12;46.05
49709;BME280;35601;55.902;13.606;2023-05-11T01:03:37;100788.34;;;9.32;46.01
49709;BME280;35601;55.902;13.606;2023-05-11T01:06:09;100786.52;;;9.17;45.98
49709;BME280;35601;55.902;13.606;2023-05-11T01:08:36;100786.95;;;9.07;46.42
49709;BME280;35601;55.902;13.606;2023-05-11T01:10:58;100793.32;;;9.10;45.97
49709;BME280;35601;55.902;13.606;2023-05-11T01:13:25;100787.06;;;9.38;45.41
49709;BME280;35601;55.902;13.606;2023-05-11T01:15:50;100787.61;;;9.49;45.56
49709;BME280;35601;55.902;13.606;2023-05-11T01:18:17;100785.81;;;9.33;45.65
49709;BME280;35601;55.902;13.606;2023-05-11T01:20:35;100785.65;;;9.40;45.26
49709;BME280;35601;55.902;13.606;2023-05-11T01:23:21;100785.67;;;9.41;45.22
49709;BME280;35601;55.902;13.606;2023-05-11T01:30:23;100790.18;;;9.09;45.70
49709;BME280;35601;55.902;13.606;2023-05-11T01:32:43;100793.30;;;9.37;45.66
49709;BME280;35601;55.902;13.606;2023-05-11T01:35:13;100792.78;;;9.19;45.50
49709;BME280;35601;55.902;13.606;2023-05-11T01:37:34;100793.40;;;9.03;44.81
49709;BME280;35601;55.902;13.606;2023-05-11T01:40:04;100797.17;;;9.35;44.64
49709;BME280;35601;55.902;13.606;2023-05-11T01:42:29;100799.24;;;9.31;44.92
49709;BME280;35601;55.902;13.606;2023-05-11T01:44:53;100796.18;;;9.62;44.70
49709;BME280;35601;55.902;13.606;2023-05-11T01:47:16;100795.89;;;9.44;44.74
49709;BME280;35601;55.902;13.606;2023-05-11T01:49:43;100801.08;;;9.55;44.65
49709;BME280;35601;55.902;13.606;2023-05-11T01:52:07;100802.46;;;9.44;44.23
49709;BME280;35601;55.902;13.606;2023-05-11T01:54:33;100806.19;;;9.37;43.96
49709;BME280;35601;55.902;13.606;2023-05-11T01:56:58;100805.93;;;9.80;44.14
49709;BME280;35601;55.902;13.606;2023-05-11T01:59:25;100808.03;;;9.06;44.36
49709;BME280;35601;55.902;13.606;2023-05-11T02:01:49;100806.84;;;9.19;44.22
49709;BME280;35601;55.902;13.606;2023-05-11T02:04:14;100807.00;;;9.48;44.14
49709;BME280;35601;55.902;13.606;2023-05-11T02:06:42;100804.62;;;9.80;44.02
49709;BME280;35601;55.902;13.606;2023-05-11T02:09:06;100804.93;;;9.49;44.13
49709;BME280;35601;55.902;13.606;2023-05-11T02:11:31;100806.33;;;9.56;44.05
49709;BME280;35601;55.902;13.606;2023-05-11T02:13:57;100810.74;;;9.46;43.89
49709;BME280;35601;55.902;13.606;2023-05-11T02:16:23;100810.39;;;9.19;44.16
49709;BME280;35601;55.902;13.606;2023-05-11T02:18:48;100809.95;;;9.60;44.41
49709;BME280;35601;55.902;13.606;2023-05-11T02:21:15;100810.76;;;9.41;44.17
49709;BME280;35601;55.902;13.606;2023-05-11T02:23:40;100811.16;;;9.53;44.18
49709;BME280;35601;55.902;13.606;2023-05-11T02:26:05;100810.30;;;9.06;43.74
49709;BME280;35601;55.902;13.606;2023-05-11T02:28:29;100812.82;;;9.08;43.87
49709;BME280;35601;55.902;13.606;2023-05-11T02:30:59;100816.63;;;9.34;43.86
49709;BME280;35601;55.902;13.606;2023-05-11T02:33:26;100818.05;;;9.67;43.97
49709;BME280;35601;55.902;13.606;2023-05-11T02:35:46;100818.98;;;9.43;43.77
49709;BME280;35601;55.902;13.606;2023-05-11T02:38:12;100816.02;;;9.30;43.86
49709;BME280;35601;55.902;13.606;2023-05-11T02:40:41;100821.75;;;9.48;43.37
49709;BME280;35601;55.902;13.606;2023-05-11T02:43:08;100822.84;;;9.52;43.87
49709;BME280;35601;55.902;13.606;2023-05-11T02:45:30;100824.46;;;9.45;44.02
49709;BME280;35601;55.902;13.606;2023-05-11T02:47:55;100824.56;;;9.49;43.62
49709;BME280;35601;55.902;13.606;2023-05-11T02:50:21;100825.51;;;9.65;43.74
49709;BME280;35601;55.902;13.606;2023-05-11T02:52:46;100828.29;;;9.06;44.21
49709;BME280;35601;55.902;13.606;2023-05-11T02:55:11;100828.96;;;9.50;43.95
49709;BME280;35601;55.902;13.606;2023-05-11T02:57:36;100828.97;;;9.23;43.81
49709;BME280;35601;55.902;13.606;2023-05-11T03:00:01;100829.12;;;8.86;43.97
49709;BME280;35601;55.902;13.606;2023-05-11T03:02:27;100827.65;;;9.24;43.92
49709;BME280;35601;55.902;13.606;2023-05-11T03:04:54;100829.30;;;9.47;43.83
49709;BME280;35601;55.902;13.606;2023-05-11T03:07:19;100832.44;;;9.51;43.95
49709;BME280;35601;55.902;13.606;2023-05-11T03:09:43;100835.27;;;9.48;44.03
49709;BME280;35601;55.902;13.606;2023-05-11T03:12:08;100837.53;;;9.70;43.71
49709;BME280;35601;55.902;13.606;2023-05-11T03:14:34;100838.91;;;9.50;43.64
49709;BME280;35601;55.902;13.606;2023-05-11T03:16:59;100838.78;;;9.68;43.22
49709;BME280;35601;55.902;13.606;2023-05-11T03:19:26;100842.03;;;9.63;43.25
49709;BME280;35601;55.902;13.606;2023-05-11T03:21:51;100840.31;;;9.40;43.29
49709;BME280;35601;55.902;13.606;2023-05-11T03:24:16;100841.14;;;9.57;43.57
49709;BME280;35601;55.902;13.606;2023-05-11T03:26:42;100843.96;;;9.78;42.92
49709;BME280;35601;55.902;13.606;2023-05-11T03:29:06;100841.97;;;10.07;43.42
49709;BME280;35601;55.902;13.606;2023-05-11T03:31:31;100844.86;;;9.64;43.13
49709;BME280;35601;55.902;13.606;2023-05-11T03:33:58;100843.10;;;9.82;43.03
49709;BME280;35601;55.902;13.606;2023-05-11T03:36:23;100848.21;;;9.34;43.30
49709;BME280;35601;55.902;13.606;2023-05-11T03:38:48;100849.68;;;9.36;43.29
49709;BME280;35601;55.902;13.606;2023-05-11T03:41:15;100850.21;;;9.83;43.15
49709;BME280;35601;55.902;13.606;2023-05-11T03:43:39;100852.79;;;10.00;42.63
49709;BME280;35601;55.902;13.606;2023-05-11T03:46:06;100854.31;;;9.79;42.79
49709;BME280;35601;55.902;13.606;2023-05-11T03:48:31;100856.62;;;9.79;43.03
49709;BME280;35601;55.902;13.606;2023-05-11T03:50:56;100860.85;;;9.69;42.77
49709;BME280;35601;55.902;13.606;2023-05-11T03:53:23;100860.06;;;9.97;43.18
49709;BME280;35601;55.902;13.606;2023-05-11T03:55:47;100863.34;;;9.86;42.78
49709;BME280;35601;55.902;13.606;2023-05-11T03:58:14;100859.73;;;9.84;42.36
49709;BME280;35601;55.902;13.606;2023-05-11T04:00:39;100861.61;;;9.98;42.83
49709;BME280;35601;55.902;13.606;2023-05-11T04:03:04;100865.04;;;9.92;42.29
49709;BME280;35601;55.902;13.606;2023-05-11T04:05:28;100861.95;;;10.37;41.41
49709;BME280;35601;55.902;13.606;2023-05-11T04:07:54;100864.94;;;10.04;41.82
49709;BME280;35601;55.902;13.606;2023-05-11T04:10:21;100868.55;;;10.32;41.65
49709;BME280;35601;55.902;13.606;2023-05-11T04:12:45;100867.95;;;10.38;41.75
49709;BME280;35601;55.902;13.606;2023-05-11T04:15:12;100868.48;;;10.54;42.11
49709;BME280;35601;55.902;13.606;2023-05-11T04:17:37;100870.24;;;10.36;41.77
49709;BME280;35601;55.902;13.606;2023-05-11T04:20:02;100868.48;;;10.69;41.40
49709;BME280;35601;55.902;13.606;2023-05-11T04:22:26;100864.93;;;10.81;41.54
49709;BME280;35601;55.902;13.606;2023-05-11T04:24:51;100865.87;;;10.77;41.38
49709;BME280;35601;55.902;13.606;2023-05-11T04:27:17;100865.18;;;11.13;40.73
49709;BME280;35601;55.902;13.606;2023-05-11T04:29:42;100865.25;;;11.08;41.39
49709;BME280;35601;55.902;13.606;2023-05-11T04:32:07;100863.98;;;11.32;40.30
49709;BME280;35601;55.902;13.606;2023-05-11T04:34:33;100862.02;;;11.52;40.52
49709;BME280;35601;55.902;13.606;2023-05-11T04:36:58;100864.16;;;11.35;40.25
49709;BME280;35601;55.902;13.606;2023-05-11T04:39:23;100867.37;;;11.60;40.06
49709;BME280;35601;55.902;13.606;2023-05-11T04:41:49;100865.54;;;11.50;39.28
49709;BME280;35601;55.902;13.606;2023-05-11T04:44:14;100864.06;;;11.94;39.73
49709;BME280;35601;55.902;13.606;2023-05-11T04:46:40;100866.61;;;12.09;40.30
49709;BME280;35601;55.902;13.606;2023-05-11T04:49:07;100865.33;;;12.78;38.46
49709;BME280;35601;55.902;13.606;2023-05-11T04:51:31;100862.99;;;12.71;38.29
49709;BME280;35601;55.902;13.606;2023-05-11T04:53:57;100862.67;;;12.76;38.08
49709;BME280;35601;55.902;13.606;2023-05-11T04:56:22;100865.20;;;13.12;37.86
49709;BME280;35601;55.902;13.606;2023-05-11T04:58:47;100862.68;;;13.11;36.90
49709;BME280;35601;55.902;13.606;2023-05-11T05:01:13;100869.76;;;13.45;36.99
49709;BME280;35601;55.902;13.606;2023-05-11T05:03:38;100867.84;;;13.07;36.40
49709;BME280;35601;55.902;13.606;2023-05-11T05:06:05;100873.14;;;13.42;37.43
49709;BME280;35601;55.902;13.606;2023-05-11T05:08:29;100879.09;;;13.90;36.70
49709;BME280;35601;55.902;13.606;2023-05-11T05:10:54;100881.10;;;13.78;35.53
49709;BME280;35601;55.902;13.606;2023-05-11T05:13:19;100880.48;;;13.85;35.47
49709;BME280;35601;55.902;13.606;2023-05-11T05:15:44;100885.45;;;14.16;35.16
49709;BME280;35601;55.902;13.606;2023-05-11T05:18:09;100889.58;;;13.98;36.58
49709;BME280;35601;55.902;13.606;2023-05-11T05:20:35;100891.75;;;14.03;35.90
49709;BME280;35601;55.902;13.606;2023-05-11T05:23:02;100894.37;;;14.21;35.09
49709;BME280;35601;55.902;13.606;2023-05-11T05:25:25;100894.22;;;14.34;34.14
49709;BME280;35601;55.902;13.606;2023-05-11T05:27:51;100899.27;;;14.10;35.75
49709;BME280;35601;55.902;13.606;2023-05-11T05:30:16;100902.73;;;14.52;35.28
49709;BME280;35601;55.902;13.606;2023-05-11T05:32:41;100901.02;;;14.37;34.36
49709;BME280;35601;55.902;13.606;2023-05-11T05:35:07;100902.15;;;14.41;35.23
49709;BME280;35601;55.902;13.606;2023-05-11T05:37:32;100902.75;;;14.56;35.28
49709;BME280;35601;55.902;13.606;2023-05-11T05:39:58;100904.12;;;14.65;35.69
49709;BME280;35601;55.902;13.606;2023-05-11T05:42:23;100904.17;;;14.86;34.92
49709;BME280;35601;55.902;13.606;2023-05-11T05:44:49;100900.63;;;14.93;34.65
49709;BME280;35601;55.902;13.606;2023-05-11T05:47:14;100904.89;;;15.11;34.43
49709;BME280;35601;55.902;13.606;2023-05-11T05:49:40;100911.21;;;15.02;33.99
49709;BME280;35601;55.902;13.606;2023-05-11T05:52:05;100909.36;;;14.56;33.81
49709;BME280;35601;55.902;13.606;2023-05-11T05:54:30;100911.39;;;15.23;34.72
49709;BME280;35601;55.902;13.606;2023-05-11T05:56:56;100914.17;;;15.18;34.87
49709;BME280;35601;55.902;13.606;2023-05-11T05:59:21;100915.02;;;15.60;34.34
49709;BME280;35601;55.902;13.606;2023-05-11T06:01:47;100916.01;;;15.81;33.29
49709;BME280;35601;55.902;13.606;2023-05-11T06:04:12;100915.90;;;15.96;33.82
49709;BME280;35601;55.902;13.606;2023-05-11T06:06:37;100918.87;;;15.84;33.37
49709;BME280;35601;55.902;13.606;2023-05-11T06:09:02;100919.50;;;15.74;32.67
49709;BME280;35601;55.902;13.606;2023-05-11T06:11:28;100921.07;;;16.28;33.81
49709;BME280;35601;55.902;13.606;2023-05-11T06:13:53;100922.16;;;16.61;32.28
49709;BME280;35601;55.902;13.606;2023-05-11T06:16:18;100927.91;;;16.35;31.83
49709;BME280;35601;55.902;13.606;2023-05-11T06:18:45;100930.93;;;16.08;32.03
49709;BME280;35601;55.902;13.606;2023-05-11T06:21:09;100931.29;;;15.59;32.26
49709;BME280;35601;55.902;13.606;2023-05-11T06:23:34;100932.38;;;15.61;32.93
49709;BME280;35601;55.902;13.606;2023-05-11T06:26:00;100927.51;;;15.97;33.66
49709;BME280;35601;55.902;13.606;2023-05-11T06:28:26;100927.85;;;16.05;32.83
49709;BME280;35601;55.902;13.606;2023-05-11T06:30:50;100931.06;;;16.18;32.48
49709;BME280;35601;55.902;13.606;2023-05-11T06:33:16;100928.68;;;16.34;33.99
49709;BME280;35601;55.902;13.606;2023-05-11T06:35:41;100930.21;;;16.46;32.92
49709;BME280;35601;55.902;13.606;2023-05-11T06:38:07;100931.28;;;16.75;32.43
49709;BME280;35601;55.902;13.606;2023-05-11T06:40:32;100926.20;;;16.35;32.92
49709;BME280;35601;55.902;13.606;2023-05-11T06:42:57;100930.95;;;16.79;32.80
49709;BME280;35601;55.902;13.606;2023-05-11T06:45:23;100935.08;;;16.47;32.06
49709;BME280;35601;55.902;13.606;2023-05-11T06:47:48;100931.96;;;16.77;33.73
49709;BME280;35601;55.902;13.606;2023-05-11T06:50:14;100931.43;;;17.29;32.67
49709;BME280;35601;55.902;13.606;2023-05-11T06:52:39;100930.12;;;17.04;32.61
49709;BME280;35601;55.902;13.606;2023-05-11T06:55:05;100928.64;;;17.13;31.87
49709;BME280;35601;55.902;13.606;2023-05-11T06:57:29;100931.87;;;17.39;32.82
49709;BME280;35601;55.902;13.606;2023-05-11T06:59:55;100933.16;;;17.40;32.16
49709;BME280;35601;55.902;13.606;2023-05-11T07:02:20;100930.73;;;17.81;34.28
49709;BME280;35601;55.902;13.606;2023-05-11T07:04:46;100933.34;;;18.00;31.60
49709;BME280;35601;55.902;13.606;2023-05-11T07:07:11;100936.69;;;18.19;31.45
49709;BME280;35601;55.902;13.606;2023-05-11T07:09:37;100939.80;;;18.04;31.37
49709;BME280;35601;55.902;13.606;2023-05-11T07:12:03;100940.40;;;18.10;30.80
49709;BME280;35601;55.902;13.606;2023-05-11T07:14:28;100941.46;;;18.25;30.17
49709;BME280;35601;55.902;13.606;2023-05-11T07:16:53;100946.16;;;18.54;29.48
49709;BME280;35601;55.902;13.606;2023-05-11T07:19:19;100943.88;;;18.67;29.49
49709;BME280;35601;55.902;13.606;2023-05-11T07:21:44;100944.09;;;18.39;29.72
49709;BME280;35601;55.902;13.606;2023-05-11T07:24:10;100946.50;;;18.03;30.12
49709;BME280;35601;55.902;13.606;2023-05-11T07:26:36;100950.41;;;17.74;30.24
49709;BME280;35601;55.902;13.606;2023-05-11T07:29:02;100950.72;;;17.91;29.95
49709;BME280;35601;55.902;13.606;2023-05-11T07:31:27;100951.90;;;18.64;29.47
49709;BME280;35601;55.902;13.606;2023-05-11T07:33:52;100954.25;;;18.49;30.99
49709;BME280;35601;55.902;13.606;2023-05-11T07:36:17;100955.29;;;18.80;31.20
49709;BME280;35601;55.902;13.606;2023-05-11T07:38:43;100956.32;;;18.84;29.02
49709;BME280;35601;55.902;13.606;2023-05-11T07:41:07;100952.49;;;18.89;29.55
49709;BME280;35601;55.902;13.606;2023-05-11T07:43:33;100954.52;;;19.47;29.16
49709;BME280;35601;55.902;13.606;2023-05-11T07:45:58;100955.49;;;19.33;28.97
49709;BME280;35601;55.902;13.606;2023-05-11T07:48:23;100954.23;;;19.62;28.49
49709;BME280;35601;55.902;13.606;2023-05-11T07:50:48;100957.34;;;19.57;29.93
49709;BME280;35601;55.902;13.606;2023-05-11T07:53:13;100958.93;;;19.40;29.47
49709;BME280;35601;55.902;13.606;2023-05-11T07:55:38;100962.56;;;19.61;29.59
49709;BME280;35601;55.902;13.606;2023-05-11T07:58:03;100961.62;;;19.78;28.90
49709;BME280;35601;55.902;13.606;2023-05-11T08:00:30;100964.06;;;20.14;29.67
49709;BME280;35601;55.902;13.606;2023-05-11T08:02:54;100962.81;;;20.17;29.55
49709;BME280;35601;55.902;13.606;2023-05-11T08:05:19;100964.88;;;19.62;30.33
49709;BME280;35601;55.902;13.606;2023-05-11T08:07:44;100964.81;;;19.59;30.02
49709;BME280;35601;55.902;13.606;2023-05-11T08:10:10;100962.31;;;20.06;28.88
49709;BME280;35601;55.902;13.606;2023-05-11T08:12:35;100963.67;;;20.09;29.73
49709;BME280;35601;55.902;13.606;2023-05-11T08:14:59;100965.03;;;20.52;29.16
49709;BME280;35601;55.902;13.606;2023-05-11T08:17:25;100971.82;;;20.66;30.31
49709;BME280;35601;55.902;13.606;2023-05-11T08:19:50;100972.32;;;21.19;29.30
49709;BME280;35601;55.902;13.606;2023-05-11T08:22:17;100976.10;;;20.91;29.14
49709;BME280;35601;55.902;13.606;2023-05-11T08:24:41;100975.29;;;20.67;29.49
49709;BME280;35601;55.902;13.606;2023-05-11T08:27:06;100976.59;;;20.99;29.71
49709;BME280;35601;55.902;13.606;2023-05-11T08:29:32;100980.49;;;20.68;28.86
49709;BME280;35601;55.902;13.606;2023-05-11T08:31:57;100976.64;;;20.92;29.04
49709;BME280;35601;55.902;13.606;2023-05-11T08:34:22;100979.74;;;21.28;29.65
49709;BME280;35601;55.902;13.606;2023-05-11T08:36:47;100984.52;;;20.99;28.43
49709;BME280;35601;55.902;13.606;2023-05-11T08:39:14;100989.85;;;20.84;29.94
49709;BME280;35601;55.902;13.606;2023-05-11T08:41:38;100986.19;;;21.01;29.76
49709;BME280;35601;55.902;13.606;2023-05-11T08:44:04;100988.54;;;20.95;29.61
49709;BME280;35601;55.902;13.606;2023-05-11T08:46:29;100987.70;;;21.07;28.67
49709;BME280;35601;55.902;13.606;2023-05-11T08:48:54;100989.67;;;20.72;29.30
49709;BME280;35601;55.902;13.606;2023-05-11T08:51:19;100989.75;;;20.93;29.45
49709;BME280;35601;55.902;13.606;2023-05-11T08:53:44;100985.47;;;21.28;29.78
49709;BME280;35601;55.902;13.606;2023-05-11T08:56:11;100989.71;;;21.16;29.53
49709;BME280;35601;55.902;13.606;2023-05-11T08:58:36;100986.36;;;20.87;28.89
49709;BME280;35601;55.902;13.606;2023-05-11T09:01:02;100986.34;;;21.10;29.03
49709;BME280;35601;55.902;13.606;2023-05-11T09:03:28;100983.81;;;20.68;28.81
49709;BME280;35601;55.902;13.606;2023-05-11T09:05:52;100981.38;;;20.82;29.14
49709;BME280;35601;55.902;13.606;2023-05-11T09:08:17;100987.23;;;21.22;29.12
49709;BME280;35601;55.902;13.606;2023-05-11T09:10:43;100987.13;;;20.18;29.14
49709;BME280;35601;55.902;13.606;2023-05-11T09:13:07;100980.78;;;20.41;29.84
49709;BME280;35601;55.902;13.606;2023-05-11T09:15:32;100987.86;;;20.80;30.25
49709;BME280;35601;55.902;13.606;2023-05-11T09:17:58;100989.70;;;20.64;29.72
49709;BME280;35601;55.902;13.606;2023-05-11T09:20:26;100984.02;;;21.08;29.11
49709;BME280;35601;55.902;13.606;2023-05-11T09:22:50;100987.26;;;21.01;28.85
49709;BME280;35601;55.902;13.606;2023-05-11T09:25:15;100987.55;;;21.20;28.65
49709;BME280;35601;55.902;13.606;2023-05-11T09:27:40;100989.37;;;21.20;29.41
49709;BME280;35601;55.902;13.606;2023-05-11T09:30:11;100992.49;;;21.07;28.72
49709;BME280;35601;55.902;13.606;2023-05-11T09:34:56;100994.52;;;21.09;28.08
49709;BME280;35601;55.902;13.606;2023-05-11T09:37:20;100996.19;;;21.37;28.28
49709;BME280;35601;55.902;13.606;2023-05-11T09:39:52;100997.05;;;21.76;28.51
49709;BME280;35601;55.902;13.606;2023-05-11T09:42:13;101000.53;;;21.13;28.73
49709;BME280;35601;55.902;13.606;2023-05-11T09:44:37;100997.81;;;21.87;28.99
49709;BME280;35601;55.902;13.606;2023-05-11T09:47:11;101000.58;;;21.59;28.40
49709;BME280;35601;55.902;13.606;2023-05-11T09:49:28;100995.21;;;21.86;28.10
49709;BME280;35601;55.902;13.606;2023-05-11T09:51:59;101014.64;;;21.49;28.70
49709;BME280;35601;55.902;13.606;2023-05-11T09:54:19;101018.83;;;21.42;29.14
49709;BME280;35601;55.902;13.606;2023-05-11T09:56:45;101008.83;;;21.16;29.48
49709;BME280;35601;55.902;13.606;2023-05-11T09:59:08;101011.56;;;20.66;28.75
49709;BME280;35601;55.902;13.606;2023-05-11T10:01:34;101012.32;;;21.50;29.61
49709;BME280;35601;55.902;13.606;2023-05-11T10:04:00;101015.29;;;21.37;28.37
49709;BME280;35601;55.902;13.606;2023-05-11T10:06:23;101011.16;;;20.37;29.52
49709;BME280;35601;55.902;13.606;2023-05-11T10:08:50;101014.46;;;21.03;28.90
49709;BME280;35601;55.902;13.606;2023-05-11T10:11:14;101012.16;;;20.94;29.43
49709;BME280;35601;55.902;13.606;2023-05-11T10:13:39;101014.94;;;20.74;29.46
49709;BME280;35601;55.902;13.606;2023-05-11T10:16:06;101012.22;;;20.72;29.37
49709;BME280;35601;55.902;13.606;2023-05-11T10:18:31;101015.33;;;20.78;29.50
49709;BME280;35601;55.902;13.606;2023-05-11T10:20:57;101015.11;;;20.98;29.31
49709;BME280;35601;55.902;13.606;2023-05-11T10:23:21;101020.92;;;20.91;29.04
49709;BME280;35601;55.902;13.606;2023-05-11T10:25:47;101018.45;;;20.52;29.50
49709;BME280;35601;55.902;13.606;2023-05-11T10:28:12;101018.05;;;20.40;29.46
49709;BME280;35601;55.902;13.606;2023-05-11T10:30:37;101016.66;;;21.29;30.07
49709;BME280;35601;55.902;13.606;2023-05-11T10:33:02;101021.52;;;21.68;28.85
49709;BME280;35601;55.902;13.606;2023-05-11T10:35:29;101015.29;;;21.52;28.24
49709;BME280;35601;55.902;13.606;2023-05-11T10:37:54;101023.34;;;21.01;28.00
49709;BME280;35601;55.902;13.606;2023-05-11T10:40:18;101020.96;;;20.78;29.12
49709;BME280;35601;55.902;13.606;2023-05-11T10:45:15;101022.64;;;20.15;29.36
49709;BME280;35601;55.902;13.606;2023-05-11T10:59:50;101027.08;;;21.09;29.19
49709;BME280;35601;55.902;13.606;2023-05-11T11:02:05;101032.00;;;20.37;29.16
49709;BME280;35601;55.902;13.606;2023-05-11T11:04:40;101029.57;;;21.09;29.99
49709;BME280;35601;55.902;13.606;2023-05-11T11:07:04;101027.88;;;21.38;29.34
49709;BME280;35601;55.902;13.606;2023-05-11T11:09:21;101024.06;;;21.59;27.75
49709;BME280;35601;55.902;13.606;2023-05-11T11:11:47;101026.97;;;21.48;28.15
49709;BME280;35601;55.902;13.606;2023-05-11T11:14:13;101033.72;;;21.42;28.20
49709;BME280;35601;55.902;13.606;2023-05-11T11:16:37;101042.53;;;21.31;27.83
49709;BME280;35601;55.902;13.606;2023-05-11T11:21:38;101038.48;;;21.59;26.74
49709;BME280;35601;55.902;13.606;2023-05-11T11:23:54;101042.08;;;20.94;27.78
49709;BME280;35601;55.902;13.606;2023-05-11T11:31:22;101039.51;;;20.68;28.51
49709;BME280;35601;55.902;13.606;2023-05-11T11:33:33;101041.12;;;20.40;28.51
49709;BME280;35601;55.902;13.606;2023-05-11T11:35:59;101051.00;;;21.05;29.19
49709;BME280;35601;55.902;13.606;2023-05-11T11:38:24;101048.00;;;21.27;28.22
49709;BME280;35601;55.902;13.606;2023-05-11T11:40:52;101053.66;;;21.33;27.95
49709;BME280;35601;55.902;13.606;2023-05-11T11:43:17;101053.57;;;21.13;28.43
49709;BME280;35601;55.902;13.606;2023-05-11T11:48:12;101053.72;;;21.33;27.82
49709;BME280;35601;55.902;13.606;2023-05-11T11:50:32;101058.91;;;20.77;27.65
49709;BME280;35601;55.902;13.606;2023-05-11T11:52:56;101056.64;;;20.89;28.33
49709;BME280;35601;55.902;13.606;2023-05-11T11:57:47;101062.55;;;20.27;27.64
49709;BME280;35601;55.902;13.606;2023-05-11T12:00:19;101066.56;;;20.18;28.51
49709;BME280;35601;55.902;13.606;2023-05-11T12:02:40;101071.84;;;19.52;29.87
49709;BME280;35601;55.902;13.606;2023-05-11T12:05:09;101064.62;;;20.20;28.57
49709;BME280;35601;55.902;13.606;2023-05-11T12:07:34;101066.62;;;20.57;30.54
49709;BME280;35601;55.902;13.606;2023-05-11T12:09:55;101074.35;;;19.66;28.88
49709;BME280;35601;55.902;13.606;2023-05-11T12:12:20;101074.86;;;20.12;29.33
49709;BME280;35601;55.902;13.606;2023-05-11T12:14:46;101071.73;;;20.59;29.38
49709;BME280;35601;55.902;13.606;2023-05-11T12:17:10;101071.51;;;20.85;28.32
49709;BME280;35601;55.902;13.606;2023-05-11T12:19:36;101078.56;;;20.05;27.99
49709;BME280;35601;55.902;13.606;2023-05-11T12:22:02;101082.33;;;20.80;28.19
49709;BME280;35601;55.902;13.606;2023-05-11T12:24:27;101082.10;;;21.15;28.53
49709;BME280;35601;55.902;13.606;2023-05-11T12:26:56;101084.65;;;20.55;27.47
49709;BME280;35601;55.902;13.606;2023-05-11T12:29:17;101088.62;;;20.45;28.96
49709;BME280;35601;55.902;13.606;2023-05-11T12:31:44;101094.52;;;20.10;28.21
49709;BME280;35601;55.902;13.606;2023-05-11T12:34:13;101094.33;;;20.23;29.54
49709;BME280;35601;55.902;13.606;2023-05-11T12:36:35;101096.92;;;20.39;28.50
49709;BME280;35601;55.902;13.606;2023-05-11T12:39:00;101093.02;;;20.34;28.20
49709;BME280;35601;55.902;13.606;2023-05-11T12:41:24;101095.05;;;20.42;28.20
49709;BME280;35601;55.902;13.606;2023-05-11T12:43:50;101096.07;;;20.47;27.65
49709;BME280;35601;55.902;13.606;2023-05-11T12:46:16;101098.04;;;21.12;28.00
49709;BME280;35601;55.902;13.606;2023-05-11T12:48:40;101098.52;;;20.40;27.40
49709;BME280;35601;55.902;13.606;2023-05-11T12:51:05;101106.39;;;19.88;27.99
49709;BME280;35601;55.902;13.606;2023-05-11T12:53:35;101107.02;;;20.16;28.75
49709;BME280;35601;55.902;13.606;2023-05-11T12:55:56;101106.21;;;20.22;28.95
49709;BME280;35601;55.902;13.606;2023-05-11T12:58:21;101105.73;;;20.19;27.78
49709;BME280;35601;55.902;13.606;2023-05-11T13:00:50;101097.53;;;19.55;28.85
49709;BME280;35601;55.902;13.606;2023-05-11T13:03:11;101101.93;;;19.69;28.17
49709;BME280;35601;55.902;13.606;2023-05-11T13:05:36;101100.43;;;19.25;27.66